If you wish to contribute or participate in the discussions about articles you are invited to join SKYbrary as a registered user

 Actions

Francistown Airport

From SKYbrary Wiki

FBFT
Airport
ICAO: FBFT – IATA: FRW
Summary
Name Francistown Airport
Region Africa
Territory Botswana BW.gif
Location Francistown, North east district
Serving Francistown
Elevation 1,000.658 m
3,283 ft
3,283 ft1,000.658 m
Coordinates 21° 9' 33.98" S, 27° 28' 27.98" E
Runways
Designator Length Width Surface ROPS
11/29 2200 m7,217.848 ft
30 m98.425 ft
ASP /
16/34 1264 m4,146.982 ft
22 m72.178 ft
GVL /


METAR
Observation FBFT 211300Z VRB06KT 9999 SCT035 SCT070 39/M01 Q1010
Station Francistown
Date/Time 21 October 2019 13:00:00
Wind direction °
Wind speed 06 kts
Lowest cloud amount scattered clouds
Temperature 39°C
Dew point
Humidity 8%
QNH 1010 hPa
Weather condition n/a

Airport serving Francistown, Botswana.

Climatology

Hot, semi-arid/Steppe climate (Köppen climate classification BSh)

Maps

Terrain

Loading map...

Airport Layout

Loading map...


Accidents & Serious Incidents at or in vicinity of FBFT

None on SKYbrary